sensor_id;sensor_type;location;lat;lon;timestamp;temperature;humidity
19567;DHT22;9930;49.240;8.548;2022-12-29T00:01:27;11.00;78.10
19567;DHT22;9930;49.240;8.548;2022-12-29T00:03:57;11.00;78.10
19567;DHT22;9930;49.240;8.548;2022-12-29T00:06:30;11.00;78.20
19567;DHT22;9930;49.240;8.548;2022-12-29T00:09:03;11.00;78.20
19567;DHT22;9930;49.240;8.548;2022-12-29T00:11:28;11.00;78.30
19567;DHT22;9930;49.240;8.548;2022-12-29T00:13:57;11.00;78.30
19567;DHT22;9930;49.240;8.548;2022-12-29T00:16:44;11.00;78.30
19567;DHT22;9930;49.240;8.548;2022-12-29T00:19:11;11.00;78.40
19567;DHT22;9930;49.240;8.548;2022-12-29T00:21:58;11.00;78.40
19567;DHT22;9930;49.240;8.548;2022-12-29T00:24:44;11.00;78.40
19567;DHT22;9930;49.240;8.548;2022-12-29T00:27:25;11.00;78.40
19567;DHT22;9930;49.240;8.548;2022-12-29T00:30:13;11.00;78.50
19567;DHT22;9930;49.240;8.548;2022-12-29T00:33:00;11.00;78.50
19567;DHT22;9930;49.240;8.548;2022-12-29T00:35:52;11.00;78.60
19567;DHT22;9930;49.240;8.548;2022-12-29T00:38:30;11.00;78.60
19567;DHT22;9930;49.240;8.548;2022-12-29T00:41:18;11.00;78.70
19567;DHT22;9930;49.240;8.548;2022-12-29T00:44:05;11.00;78.70
19567;DHT22;9930;49.240;8.548;2022-12-29T00:46:36;11.00;78.80
19567;DHT22;9930;49.240;8.548;2022-12-29T00:49:04;11.00;78.80
19567;DHT22;9930;49.240;8.548;2022-12-29T00:51:50;11.10;79.00
19567;DHT22;9930;49.240;8.548;2022-12-29T00:54:17;11.10;79.10
19567;DHT22;9930;49.240;8.548;2022-12-29T00:56:45;11.10;79.20
19567;DHT22;9930;49.240;8.548;2022-12-29T00:59:18;11.10;79.30
19567;DHT22;9930;49.240;8.548;2022-12-29T01:01:45;11.20;79.50
19567;DHT22;9930;49.240;8.548;2022-12-29T01:04:14;11.20;79.60
19567;DHT22;9930;49.240;8.548;2022-12-29T01:06:42;11.30;79.80
19567;DHT22;9930;49.240;8.548;2022-12-29T01:09:09;11.30;79.80
19567;DHT22;9930;49.240;8.548;2022-12-29T01:11:57;11.40;79.90
19567;DHT22;9930;49.240;8.548;2022-12-29T01:14:29;11.50;79.90
19567;DHT22;9930;49.240;8.548;2022-12-29T01:16:57;11.50;79.90
19567;DHT22;9930;49.240;8.548;2022-12-29T01:19:27;11.60;80.00
19567;DHT22;9930;49.240;8.548;2022-12-29T01:21:57;11.70;80.00
19567;DHT22;9930;49.240;8.548;2022-12-29T01:24:30;11.80;80.10
19567;DHT22;9930;49.240;8.548;2022-12-29T01:26:57;11.90;80.10
19567;DHT22;9930;49.240;8.548;2022-12-29T01:29:27;12.00;80.20
19567;DHT22;9930;49.240;8.548;2022-12-29T01:31:56;12.00;80.10
19567;DHT22;9930;49.240;8.548;2022-12-29T01:34:23;12.10;80.00
19567;DHT22;9930;49.240;8.548;2022-12-29T01:36:57;12.20;79.90
19567;DHT22;9930;49.240;8.548;2022-12-29T01:39:27;12.20;79.70
19567;DHT22;9930;49.240;8.548;2022-12-29T01:41:55;12.30;79.60
19567;DHT22;9930;49.240;8.548;2022-12-29T01:50:11;12.40;79.30
19567;DHT22;9930;49.240;8.548;2022-12-29T01:52:58;12.50;79.20
19567;DHT22;9930;49.240;8.548;2022-12-29T01:55:34;12.40;79.00
19567;DHT22;9930;49.240;8.548;2022-12-29T01:58:06;12.50;79.20
19567;DHT22;9930;49.240;8.548;2022-12-29T02:00:32;12.60;79.40
19567;DHT22;9930;49.240;8.548;2022-12-29T02:03:04;12.60;79.50
19567;DHT22;9930;49.240;8.548;2022-12-29T02:05:46;12.70;79.60
19567;DHT22;9930;49.240;8.548;2022-12-29T02:08:16;12.70;79.60
19567;DHT22;9930;49.240;8.548;2022-12-29T02:10:44;12.80;79.60
19567;DHT22;9930;49.240;8.548;2022-12-29T02:13:10;12.80;79.60
19567;DHT22;9930;49.240;8.548;2022-12-29T02:24:21;12.80;79.60
19567;DHT22;9930;49.240;8.548;2022-12-29T02:36:53;12.80;79.60
19567;DHT22;9930;49.240;8.548;2022-12-29T02:39:18;12.80;79.60
19567;DHT22;9930;49.240;8.548;2022-12-29T02:45:15;12.90;79.80
19567;DHT22;9930;49.240;8.548;2022-12-29T02:50:52;12.80;79.90
19567;DHT22;9930;49.240;8.548;2022-12-29T02:53:32;12.80;79.80
19567;DHT22;9930;49.240;8.548;2022-12-29T02:56:18;12.90;79.80
19567;DHT22;9930;49.240;8.548;2022-12-29T02:58:44;12.80;79.80
19567;DHT22;9930;49.240;8.548;2022-12-29T03:11:12;12.70;80.40
19567;DHT22;9930;49.240;8.548;2022-12-29T03:14:23;12.70;80.30
19567;DHT22;9930;49.240;8.548;2022-12-29T03:17:51;12.70;80.50
19567;DHT22;9930;49.240;8.548;2022-12-29T03:20:52;12.70;80.60
19567;DHT22;9930;49.240;8.548;2022-12-29T03:23:29;12.70;80.70
19567;DHT22;9930;49.240;8.548;2022-12-29T03:26:00;12.80;80.70
19567;DHT22;9930;49.240;8.548;2022-12-29T03:28:36;12.80;80.80
19567;DHT22;9930;49.240;8.548;2022-12-29T03:31:06;12.80;80.80
19567;DHT22;9930;49.240;8.548;2022-12-29T03:33:35;12.80;80.80
19567;DHT22;9930;49.240;8.548;2022-12-29T03:36:05;12.90;80.90
19567;DHT22;9930;49.240;8.548;2022-12-29T03:38:48;12.90;80.90
19567;DHT22;9930;49.240;8.548;2022-12-29T03:41:28;12.90;80.70
19567;DHT22;9930;49.240;8.548;2022-12-29T03:43:57;12.90;80.60
19567;DHT22;9930;49.240;8.548;2022-12-29T03:46:25;13.00;80.60
19567;DHT22;9930;49.240;8.548;2022-12-29T03:48:52;12.90;80.40
19567;DHT22;9930;49.240;8.548;2022-12-29T03:51:27;13.00;80.40
19567;DHT22;9930;49.240;8.548;2022-12-29T03:53:52;13.00;80.40
19567;DHT22;9930;49.240;8.548;2022-12-29T03:56:24;13.00;80.30
19567;DHT22;9930;49.240;8.548;2022-12-29T03:58:52;13.00;80.90
19567;DHT22;9930;49.240;8.548;2022-12-29T04:01:22;13.10;80.20
19567;DHT22;9930;49.240;8.548;2022-12-29T04:03:54;13.10;80.10
19567;DHT22;9930;49.240;8.548;2022-12-29T04:06:26;13.00;80.00
19567;DHT22;9930;49.240;8.548;2022-12-29T04:08:57;13.10;80.00
19567;DHT22;9930;49.240;8.548;2022-12-29T04:11:27;13.10;80.00
19567;DHT22;9930;49.240;8.548;2022-12-29T04:13:56;13.10;79.90
19567;DHT22;9930;49.240;8.548;2022-12-29T04:16:27;13.10;79.90
19567;DHT22;9930;49.240;8.548;2022-12-29T04:18:53;13.10;79.80
19567;DHT22;9930;49.240;8.548;2022-12-29T04:21:22;13.10;79.80
19567;DHT22;9930;49.240;8.548;2022-12-29T04:23:52;13.10;79.80
19567;DHT22;9930;49.240;8.548;2022-12-29T04:26:22;13.10;79.80
19567;DHT22;9930;49.240;8.548;2022-12-29T04:28:47;13.10;79.80
19567;DHT22;9930;49.240;8.548;2022-12-29T04:31:13;13.20;79.80
19567;DHT22;9930;49.240;8.548;2022-12-29T04:33:39;13.20;79.60
19567;DHT22;9930;49.240;8.548;2022-12-29T04:36:08;13.20;79.50
19567;DHT22;9930;49.240;8.548;2022-12-29T04:38:34;13.20;79.40
19567;DHT22;9930;49.240;8.548;2022-12-29T04:41:02;13.30;79.30
19567;DHT22;9930;49.240;8.548;2022-12-29T04:43:28;13.30;79.20
19567;DHT22;9930;49.240;8.548;2022-12-29T04:45:57;13.30;79.10
19567;DHT22;9930;49.240;8.548;2022-12-29T04:48:23;13.40;79.00
19567;DHT22;9930;49.240;8.548;2022-12-29T04:50:57;13.40;79.00
19567;DHT22;9930;49.240;8.548;2022-12-29T04:53:27;13.40;78.80
19567;DHT22;9930;49.240;8.548;2022-12-29T04:55:57;13.40;78.70
19567;DHT22;9930;49.240;8.548;2022-12-29T04:58:25;13.40;79.40
19567;DHT22;9930;49.240;8.548;2022-12-29T05:00:57;13.40;78.70
19567;DHT22;9930;49.240;8.548;2022-12-29T05:03:26;13.40;78.50
19567;DHT22;9930;49.240;8.548;2022-12-29T05:05:57;13.50;78.50
19567;DHT22;9930;49.240;8.548;2022-12-29T05:08:25;13.40;78.30
19567;DHT22;9930;49.240;8.548;2022-12-29T05:10:51;13.50;78.40
19567;DHT22;9930;49.240;8.548;2022-12-29T05:13:18;13.50;78.30
19567;DHT22;9930;49.240;8.548;2022-12-29T05:15:53;13.50;78.30
19567;DHT22;9930;49.240;8.548;2022-12-29T05:18:21;13.50;78.00
19567;DHT22;9930;49.240;8.548;2022-12-29T05:20:47;13.50;78.10
19567;DHT22;9930;49.240;8.548;2022-12-29T05:23:13;13.50;78.10
19567;DHT22;9930;49.240;8.548;2022-12-29T05:25:39;13.50;78.10
19567;DHT22;9930;49.240;8.548;2022-12-29T05:28:05;13.50;78.00
19567;DHT22;9930;49.240;8.548;2022-12-29T05:30:33;13.50;78.00
19567;DHT22;9930;49.240;8.548;2022-12-29T05:32:59;13.60;78.00
19567;DHT22;9930;49.240;8.548;2022-12-29T05:35:28;13.60;77.80
19567;DHT22;9930;49.240;8.548;2022-12-29T05:37:57;13.60;77.70
19567;DHT22;9930;49.240;8.548;2022-12-29T05:40:27;13.60;77.70
19567;DHT22;9930;49.240;8.548;2022-12-29T05:42:55;13.60;77.50
19567;DHT22;9930;49.240;8.548;2022-12-29T05:45:27;13.50;77.40
19567;DHT22;9930;49.240;8.548;2022-12-29T05:47:57;13.50;77.40
19567;DHT22;9930;49.240;8.548;2022-12-29T05:50:27;13.50;77.40
19567;DHT22;9930;49.240;8.548;2022-12-29T05:52:57;13.50;77.40
19567;DHT22;9930;49.240;8.548;2022-12-29T05:55:23;13.50;77.40
19567;DHT22;9930;49.240;8.548;2022-12-29T05:57:57;13.50;77.40
19567;DHT22;9930;49.240;8.548;2022-12-29T06:00:36;13.50;77.50
19567;DHT22;9930;49.240;8.548;2022-12-29T06:03:02;13.50;77.40
19567;DHT22;9930;49.240;8.548;2022-12-29T06:05:27;13.50;77.60
19567;DHT22;9930;49.240;8.548;2022-12-29T06:07:55;13.50;77.50
19567;DHT22;9930;49.240;8.548;2022-12-29T06:10:27;13.50;77.50
19567;DHT22;9930;49.240;8.548;2022-12-29T06:12:53;13.50;77.40
19567;DHT22;9930;49.240;8.548;2022-12-29T06:15:22;13.50;77.40
19567;DHT22;9930;49.240;8.548;2022-12-29T06:17:47;13.50;77.40
19567;DHT22;9930;49.240;8.548;2022-12-29T06:20:16;13.50;78.10
19567;DHT22;9930;49.240;8.548;2022-12-29T06:22:44;13.50;77.40
19567;DHT22;9930;49.240;8.548;2022-12-29T06:25:10;13.50;77.40
19567;DHT22;9930;49.240;8.548;2022-12-29T06:27:36;13.60;77.50
19567;DHT22;9930;49.240;8.548;2022-12-29T06:30:05;13.60;77.50
19567;DHT22;9930;49.240;8.548;2022-12-29T06:32:31;13.60;77.30
19567;DHT22;9930;49.240;8.548;2022-12-29T06:34:59;13.60;77.20
19567;DHT22;9930;49.240;8.548;2022-12-29T06:37:29;13.60;77.20
19567;DHT22;9930;49.240;8.548;2022-12-29T06:40:01;13.60;77.00
19567;DHT22;9930;49.240;8.548;2022-12-29T06:42:27;13.60;76.90
19567;DHT22;9930;49.240;8.548;2022-12-29T06:44:57;13.70;77.10
19567;DHT22;9930;49.240;8.548;2022-12-29T06:47:30;13.70;77.00
19567;DHT22;9930;49.240;8.548;2022-12-29T06:49:57;13.70;77.00
19567;DHT22;9930;49.240;8.548;2022-12-29T06:52:28;13.70;77.00
19567;DHT22;9930;49.240;8.548;2022-12-29T06:54:57;13.70;76.80
19567;DHT22;9930;49.240;8.548;2022-12-29T06:57:27;13.70;76.70
19567;DHT22;9930;49.240;8.548;2022-12-29T06:59:57;13.70;76.60
19567;DHT22;9930;49.240;8.548;2022-12-29T07:02:27;13.70;76.70
19567;DHT22;9930;49.240;8.548;2022-12-29T07:04:54;13.70;76.80
19567;DHT22;9930;49.240;8.548;2022-12-29T07:07:22;13.70;77.50
19567;DHT22;9930;49.240;8.548;2022-12-29T07:09:55;13.70;76.70
19567;DHT22;9930;49.240;8.548;2022-12-29T07:12:25;13.70;76.60
19567;DHT22;9930;49.240;8.548;2022-12-29T07:14:53;13.80;76.60
19567;DHT22;9930;49.240;8.548;2022-12-29T07:17:25;13.80;76.60
19567;DHT22;9930;49.240;8.548;2022-12-29T07:19:57;13.80;76.60
19567;DHT22;9930;49.240;8.548;2022-12-29T07:22:23;13.70;76.30
19567;DHT22;9930;49.240;8.548;2022-12-29T07:24:52;13.80;76.40
19567;DHT22;9930;49.240;8.548;2022-12-29T07:27:22;13.80;76.30
19567;DHT22;9930;49.240;8.548;2022-12-29T07:29:56;13.80;76.20
19567;DHT22;9930;49.240;8.548;2022-12-29T07:32:22;13.80;76.20
19567;DHT22;9930;49.240;8.548;2022-12-29T07:34:52;13.80;76.20
19567;DHT22;9930;49.240;8.548;2022-12-29T07:37:21;13.80;76.10
19567;DHT22;9930;49.240;8.548;2022-12-29T07:39:47;13.80;76.70
19567;DHT22;9930;49.240;8.548;2022-12-29T07:42:13;13.80;76.20
19567;DHT22;9930;49.240;8.548;2022-12-29T07:44:38;13.80;76.00
19567;DHT22;9930;49.240;8.548;2022-12-29T07:47:04;13.80;75.90
19567;DHT22;9930;49.240;8.548;2022-12-29T07:49:32;13.80;75.80
19567;DHT22;9930;49.240;8.548;2022-12-29T07:51:57;13.90;75.90
19567;DHT22;9930;49.240;8.548;2022-12-29T07:54:25;13.90;75.80
19567;DHT22;9930;49.240;8.548;2022-12-29T07:56:51;13.90;75.80
19567;DHT22;9930;49.240;8.548;2022-12-29T07:59:17;13.90;75.70
19567;DHT22;9930;49.240;8.548;2022-12-29T08:01:43;13.90;75.70
19567;DHT22;9930;49.240;8.548;2022-12-29T08:04:08;13.90;75.70
19567;DHT22;9930;49.240;8.548;2022-12-29T08:06:34;13.90;75.70
19567;DHT22;9930;49.240;8.548;2022-12-29T08:09:00;13.90;75.70
19567;DHT22;9930;49.240;8.548;2022-12-29T08:11:28;13.90;75.70
19567;DHT22;9930;49.240;8.548;2022-12-29T08:13:55;13.90;75.50
19567;DHT22;9930;49.240;8.548;2022-12-29T08:16:24;13.90;75.40
19567;DHT22;9930;49.240;8.548;2022-12-29T08:18:51;14.00;75.40
19567;DHT22;9930;49.240;8.548;2022-12-29T08:21:16;14.00;75.40
19567;DHT22;9930;49.240;8.548;2022-12-29T08:23:44;14.00;75.30
19567;DHT22;9930;49.240;8.548;2022-12-29T08:26:10;14.00;75.20
19567;DHT22;9930;49.240;8.548;2022-12-29T08:28:38;14.00;75.20
19567;DHT22;9930;49.240;8.548;2022-12-29T08:31:04;14.00;75.10
19567;DHT22;9930;49.240;8.548;2022-12-29T08:33:30;14.10;75.20
19567;DHT22;9930;49.240;8.548;2022-12-29T08:36:00;14.10;75.20
19567;DHT22;9930;49.240;8.548;2022-12-29T08:38:30;14.10;75.00
19567;DHT22;9930;49.240;8.548;2022-12-29T08:40:59;14.20;75.10
19567;DHT22;9930;49.240;8.548;2022-12-29T08:43:27;14.20;75.00
19567;DHT22;9930;49.240;8.548;2022-12-29T08:45:53;14.20;75.00
19567;DHT22;9930;49.240;8.548;2022-12-29T08:48:19;14.30;74.80
19567;DHT22;9930;49.240;8.548;2022-12-29T08:50:48;14.30;74.80
19567;DHT22;9930;49.240;8.548;2022-12-29T08:53:15;14.40;74.80
19567;DHT22;9930;49.240;8.548;2022-12-29T08:55:40;14.40;74.60
19567;DHT22;9930;49.240;8.548;2022-12-29T08:58:06;14.40;74.60
19567;DHT22;9930;49.240;8.548;2022-12-29T09:00:32;14.40;74.50
19567;DHT22;9930;49.240;8.548;2022-12-29T09:02:57;14.40;74.40
19567;DHT22;9930;49.240;8.548;2022-12-29T09:05:25;14.50;74.40
19567;DHT22;9930;49.240;8.548;2022-12-29T09:07:55;14.50;74.40
19567;DHT22;9930;49.240;8.548;2022-12-29T09:10:26;14.50;74.20
19567;DHT22;9930;49.240;8.548;2022-12-29T09:12:51;14.50;74.40
19567;DHT22;9930;49.240;8.548;2022-12-29T09:15:20;14.60;74.30
19567;DHT22;9930;49.240;8.548;2022-12-29T09:17:45;14.60;74.20
19567;DHT22;9930;49.240;8.548;2022-12-29T09:20:16;14.70;74.20
19567;DHT22;9930;49.240;8.548;2022-12-29T09:22:45;14.70;74.20
19567;DHT22;9930;49.240;8.548;2022-12-29T09:25:12;14.70;74.00
19567;DHT22;9930;49.240;8.548;2022-12-29T09:27:39;14.80;74.00
19567;DHT22;9930;49.240;8.548;2022-12-29T09:30:06;14.80;73.80
19567;DHT22;9930;49.240;8.548;2022-12-29T09:32:34;14.80;74.50
19567;DHT22;9930;49.240;8.548;2022-12-29T09:35:03;14.80;73.70
19567;DHT22;9930;49.240;8.548;2022-12-29T09:37:29;14.80;73.80
19567;DHT22;9930;49.240;8.548;2022-12-29T09:39:56;14.90;73.70
19567;DHT22;9930;49.240;8.548;2022-12-29T09:42:23;14.90;73.60
19567;DHT22;9930;49.240;8.548;2022-12-29T09:45:14;14.90;73.60
19567;DHT22;9930;49.240;8.548;2022-12-29T09:47:45;14.80;73.30
19567;DHT22;9930;49.240;8.548;2022-12-29T09:53:21;14.80;73.30
19567;DHT22;9930;49.240;8.548;2022-12-29T09:56:05;14.80;73.30
19567;DHT22;9930;49.240;8.548;2022-12-29T10:04:19;14.80;74.10
19567;DHT22;9930;49.240;8.548;2022-12-29T10:06:59;14.80;73.70
19567;DHT22;9930;49.240;8.548;2022-12-29T10:09:44;14.90;73.70
19567;DHT22;9930;49.240;8.548;2022-12-29T10:15:54;14.80;73.50
19567;DHT22;9930;49.240;8.548;2022-12-29T10:24:56;14.90;74.20
19567;DHT22;9930;49.240;8.548;2022-12-29T10:27:26;14.90;74.20
19567;DHT22;9930;49.240;8.548;2022-12-29T10:29:58;14.90;74.00
19567;DHT22;9930;49.240;8.548;2022-12-29T10:35:16;14.90;74.10
19567;DHT22;9930;49.240;8.548;2022-12-29T10:38:22;14.80;74.00
19567;DHT22;9930;49.240;8.548;2022-12-29T10:41:03;14.80;74.00
19567;DHT22;9930;49.240;8.548;2022-12-29T10:44:04;14.80;74.00
19567;DHT22;9930;49.240;8.548;2022-12-29T10:46:35;14.80;73.60
19567;DHT22;9930;49.240;8.548;2022-12-29T10:49:06;14.90;74.10
19567;DHT22;9930;49.240;8.548;2022-12-29T10:51:39;14.90;74.00
19567;DHT22;9930;49.240;8.548;2022-12-29T10:54:25;14.90;73.90
19567;DHT22;9930;49.240;8.548;2022-12-29T10:57:09;14.90;73.80
19567;DHT22;9930;49.240;8.548;2022-12-29T10:59:46;14.90;73.80
19567;DHT22;9930;49.240;8.548;2022-12-29T11:04:45;15.00;73.90
19567;DHT22;9930;49.240;8.548;2022-12-29T11:07:23;15.00;73.80
19567;DHT22;9930;49.240;8.548;2022-12-29T11:09:53;15.00;73.90
19567;DHT22;9930;49.240;8.548;2022-12-29T11:12:40;15.00;73.90
19567;DHT22;9930;49.240;8.548;2022-12-29T11:15:22;15.00;74.00
19567;DHT22;9930;49.240;8.548;2022-12-29T11:17:56;15.00;74.30
19567;DHT22;9930;49.240;8.548;2022-12-29T11:20:32;15.10;74.50
19567;DHT22;9930;49.240;8.548;2022-12-29T11:23:01;15.20;74.70
19567;DHT22;9930;49.240;8.548;2022-12-29T11:25:29;15.30;75.10
19567;DHT22;9930;49.240;8.548;2022-12-29T11:28:04;15.40;74.90
19567;DHT22;9930;49.240;8.548;2022-12-29T11:30:43;15.50;74.70
19567;DHT22;9930;49.240;8.548;2022-12-29T11:33:09;15.70;74.60
19567;DHT22;9930;49.240;8.548;2022-12-29T11:35:41;15.80;74.50
19567;DHT22;9930;49.240;8.548;2022-12-29T11:38:41;15.90;74.10
19567;DHT22;9930;49.240;8.548;2022-12-29T11:41:13;15.90;73.30
19567;DHT22;9930;49.240;8.548;2022-12-29T11:43:45;16.00;73.90
19567;DHT22;9930;49.240;8.548;2022-12-29T11:46:16;16.10;73.60
19567;DHT22;9930;49.240;8.548;2022-12-29T11:48:46;16.10;73.20
19567;DHT22;9930;49.240;8.548;2022-12-29T11:51:28;16.20;73.00
19567;DHT22;9930;49.240;8.548;2022-12-29T11:53:59;16.20;72.50
19567;DHT22;9930;49.240;8.548;2022-12-29T11:56:39;16.20;72.70
19567;DHT22;9930;49.240;8.548;2022-12-29T12:02:24;16.20;71.80
19567;DHT22;9930;49.240;8.548;2022-12-29T12:09:01;16.20;71.50
19567;DHT22;9930;49.240;8.548;2022-12-29T12:11:52;16.20;71.70
19567;DHT22;9930;49.240;8.548;2022-12-29T12:15:03;16.20;71.70
19567;DHT22;9930;49.240;8.548;2022-12-29T12:18:00;16.20;70.80
19567;DHT22;9930;49.240;8.548;2022-12-29T12:20:42;16.20;71.40
19567;DHT22;9930;49.240;8.548;2022-12-29T12:28:40;16.10;70.50
19567;DHT22;9930;49.240;8.548;2022-12-29T12:34:39;16.10;70.20
19567;DHT22;9930;49.240;8.548;2022-12-29T12:37:38;16.00;70.40
19567;DHT22;9930;49.240;8.548;2022-12-29T12:43:12;16.00;70.50
19567;DHT22;9930;49.240;8.548;2022-12-29T12:45:55;16.10;70.70
19567;DHT22;9930;49.240;8.548;2022-12-29T13:00:19;16.10;70.70
19567;DHT22;9930;49.240;8.548;2022-12-29T13:03:03;16.10;70.70
19567;DHT22;9930;49.240;8.548;2022-12-29T13:11:37;16.00;70.50
19567;DHT22;9930;49.240;8.548;2022-12-29T13:14:32;15.90;70.80
19567;DHT22;9930;49.240;8.548;2022-12-29T13:17:08;15.90;70.70
19567;DHT22;9930;49.240;8.548;2022-12-29T13:20:21;15.90;70.90
19567;DHT22;9930;49.240;8.548;2022-12-29T13:23:18;15.80;70.90
19567;DHT22;9930;49.240;8.548;2022-12-29T13:28:54;15.80;71.20
19567;DHT22;9930;49.240;8.548;2022-12-29T13:35:02;15.80;71.10
19567;DHT22;9930;49.240;8.548;2022-12-29T13:37:50;15.70;71.10
19567;DHT22;9930;49.240;8.548;2022-12-29T13:40:28;15.70;71.20
19567;DHT22;9930;49.240;8.548;2022-12-29T13:43:00;15.70;71.20
19567;DHT22;9930;49.240;8.548;2022-12-29T13:45:30;15.70;71.40
19567;DHT22;9930;49.240;8.548;2022-12-29T13:48:06;15.70;71.30
19567;DHT22;9930;49.240;8.548;2022-12-29T13:50:52;15.70;71.30
19567;DHT22;9930;49.240;8.548;2022-12-29T14:00:17;15.60;71.20
19567;DHT22;9930;49.240;8.548;2022-12-29T14:07:49;15.60;71.30
19567;DHT22;9930;49.240;8.548;2022-12-29T14:10:45;15.60;71.40
19567;DHT22;9930;49.240;8.548;2022-12-29T14:13:16;15.60;71.20
19567;DHT22;9930;49.240;8.548;2022-12-29T14:15:51;15.60;71.30
19567;DHT22;9930;49.240;8.548;2022-12-29T14:18:28;15.60;71.20
19567;DHT22;9930;49.240;8.548;2022-12-29T14:21:11;15.60;71.10
19567;DHT22;9930;49.240;8.548;2022-12-29T14:23:49;15.50;71.10
19567;DHT22;9930;49.240;8.548;2022-12-29T14:28:45;15.60;71.30
19567;DHT22;9930;49.240;8.548;2022-12-29T14:36:58;15.50;71.20
19567;DHT22;9930;49.240;8.548;2022-12-29T14:39:38;15.40;71.20
19567;DHT22;9930;49.240;8.548;2022-12-29T14:42:12;15.40;71.40
19567;DHT22;9930;49.240;8.548;2022-12-29T14:50:05;15.20;71.80
19567;DHT22;9930;49.240;8.548;2022-12-29T14:55:45;15.00;72.30
19567;DHT22;9930;49.240;8.548;2022-12-29T15:00:55;14.90;72.70
19567;DHT22;9930;49.240;8.548;2022-12-29T15:03:32;14.80;72.80
19567;DHT22;9930;49.240;8.548;2022-12-29T15:06:09;14.80;73.30
19567;DHT22;9930;49.240;8.548;2022-12-29T15:12:04;14.70;73.60
19567;DHT22;9930;49.240;8.548;2022-12-29T15:14:54;14.60;73.70
19567;DHT22;9930;49.240;8.548;2022-12-29T15:17:28;14.60;73.70
19567;DHT22;9930;49.240;8.548;2022-12-29T15:19:59;14.50;74.00
19567;DHT22;9930;49.240;8.548;2022-12-29T15:22:53;14.40;74.20
19567;DHT22;9930;49.240;8.548;2022-12-29T15:25:26;14.40;74.40
19567;DHT22;9930;49.240;8.548;2022-12-29T15:28:02;14.40;74.50
19567;DHT22;9930;49.240;8.548;2022-12-29T15:30:34;14.30;74.90
19567;DHT22;9930;49.240;8.548;2022-12-29T15:33:00;14.30;74.80
19567;DHT22;9930;49.240;8.548;2022-12-29T15:35:34;14.30;74.90
19567;DHT22;9930;49.240;8.548;2022-12-29T15:38:14;14.20;75.00
19567;DHT22;9930;49.240;8.548;2022-12-29T15:40:45;14.20;76.20
19567;DHT22;9930;49.240;8.548;2022-12-29T15:46:03;14.10;75.50
19567;DHT22;9930;49.240;8.548;2022-12-29T15:48:30;14.10;75.30
19567;DHT22;9930;49.240;8.548;2022-12-29T15:50:58;14.00;75.30
19567;DHT22;9930;49.240;8.548;2022-12-29T15:53:30;14.00;75.40
19567;DHT22;9930;49.240;8.548;2022-12-29T15:56:07;13.90;75.50
19567;DHT22;9930;49.240;8.548;2022-12-29T15:58:49;13.90;75.70
19567;DHT22;9930;49.240;8.548;2022-12-29T16:01:37;13.80;75.80
19567;DHT22;9930;49.240;8.548;2022-12-29T16:04:07;13.80;75.60
19567;DHT22;9930;49.240;8.548;2022-12-29T16:06:39;13.70;75.80
19567;DHT22;9930;49.240;8.548;2022-12-29T16:09:19;13.60;76.10
19567;DHT22;9930;49.240;8.548;2022-12-29T16:11:59;13.60;76.40
19567;DHT22;9930;49.240;8.548;2022-12-29T16:14:40;13.60;76.50
19567;DHT22;9930;49.240;8.548;2022-12-29T16:17:14;13.50;76.50
19567;DHT22;9930;49.240;8.548;2022-12-29T16:19:58;13.50;76.70
19567;DHT22;9930;49.240;8.548;2022-12-29T16:22:41;13.50;77.00
19567;DHT22;9930;49.240;8.548;2022-12-29T16:25:28;13.50;77.30
19567;DHT22;9930;49.240;8.548;2022-12-29T16:27:59;13.50;77.20
19567;DHT22;9930;49.240;8.548;2022-12-29T16:30:32;13.50;77.10
19567;DHT22;9930;49.240;8.548;2022-12-29T16:33:03;13.50;77.30
19567;DHT22;9930;49.240;8.548;2022-12-29T16:38:17;13.50;77.70
19567;DHT22;9930;49.240;8.548;2022-12-29T16:43:35;13.50;77.50
19567;DHT22;9930;49.240;8.548;2022-12-29T16:46:27;13.50;77.60
19567;DHT22;9930;49.240;8.548;2022-12-29T16:48:57;13.40;78.60
19567;DHT22;9930;49.240;8.548;2022-12-29T16:51:34;13.50;77.50
19567;DHT22;9930;49.240;8.548;2022-12-29T16:54:02;13.50;77.70
19567;DHT22;9930;49.240;8.548;2022-12-29T16:56:32;13.50;77.60
19567;DHT22;9930;49.240;8.548;2022-12-29T16:59:17;13.50;77.70
19567;DHT22;9930;49.240;8.548;2022-12-29T17:02:14;13.50;77.90
19567;DHT22;9930;49.240;8.548;2022-12-29T17:04:43;13.50;78.10
19567;DHT22;9930;49.240;8.548;2022-12-29T17:07:27;13.50;77.80
19567;DHT22;9930;49.240;8.548;2022-12-29T17:10:00;13.50;77.90
19567;DHT22;9930;49.240;8.548;2022-12-29T17:12:29;13.50;78.30
19567;DHT22;9930;49.240;8.548;2022-12-29T17:15:29;13.50;78.50
19567;DHT22;9930;49.240;8.548;2022-12-29T17:18:02;13.50;78.10
19567;DHT22;9930;49.240;8.548;2022-12-29T17:20:30;13.50;78.00
19567;DHT22;9930;49.240;8.548;2022-12-29T17:22:58;13.50;77.90
19567;DHT22;9930;49.240;8.548;2022-12-29T17:25:33;13.50;77.90
19567;DHT22;9930;49.240;8.548;2022-12-29T17:28:04;13.50;78.10
19567;DHT22;9930;49.240;8.548;2022-12-29T17:30:49;13.50;78.00
19567;DHT22;9930;49.240;8.548;2022-12-29T17:33:20;13.50;78.10
19567;DHT22;9930;49.240;8.548;2022-12-29T17:35:46;13.50;78.10
19567;DHT22;9930;49.240;8.548;2022-12-29T17:38:27;13.50;78.00
19567;DHT22;9930;49.240;8.548;2022-12-29T17:41:01;13.40;78.10
19567;DHT22;9930;49.240;8.548;2022-12-29T17:43:58;13.50;78.00
19567;DHT22;9930;49.240;8.548;2022-12-29T17:46:30;13.50;78.20
19567;DHT22;9930;49.240;8.548;2022-12-29T17:49:01;13.50;78.20
19567;DHT22;9930;49.240;8.548;2022-12-29T17:51:28;13.50;78.30
19567;DHT22;9930;49.240;8.548;2022-12-29T17:53:59;13.50;78.20
19567;DHT22;9930;49.240;8.548;2022-12-29T17:56:28;13.50;78.30
19567;DHT22;9930;49.240;8.548;2022-12-29T17:58:57;13.50;78.40
19567;DHT22;9930;49.240;8.548;2022-12-29T18:01:27;13.50;78.40
19567;DHT22;9930;49.240;8.548;2022-12-29T18:03:54;13.50;78.40
19567;DHT22;9930;49.240;8.548;2022-12-29T18:06:21;13.50;78.40
19567;DHT22;9930;49.240;8.548;2022-12-29T18:08:46;13.50;78.50
19567;DHT22;9930;49.240;8.548;2022-12-29T18:11:30;13.50;78.50
19567;DHT22;9930;49.240;8.548;2022-12-29T18:13:57;13.50;79.60
19567;DHT22;9930;49.240;8.548;2022-12-29T18:16:23;13.50;78.40
19567;DHT22;9930;49.240;8.548;2022-12-29T18:18:49;13.50;78.40
19567;DHT22;9930;49.240;8.548;2022-12-29T18:21:18;13.40;78.40
19567;DHT22;9930;49.240;8.548;2022-12-29T18:23:48;13.40;78.40
19567;DHT22;9930;49.240;8.548;2022-12-29T18:28:50;13.40;78.50
19567;DHT22;9930;49.240;8.548;2022-12-29T18:31:21;13.30;78.50
19567;DHT22;9930;49.240;8.548;2022-12-29T18:33:50;13.30;78.50
19567;DHT22;9930;49.240;8.548;2022-12-29T18:36:19;13.30;78.50
19567;DHT22;9930;49.240;8.548;2022-12-29T18:38:46;13.20;78.60
19567;DHT22;9930;49.240;8.548;2022-12-29T18:41:18;13.20;78.70
19567;DHT22;9930;49.240;8.548;2022-12-29T18:43:45;13.20;78.80
19567;DHT22;9930;49.240;8.548;2022-12-29T18:46:12;13.10;78.80
19567;DHT22;9930;49.240;8.548;2022-12-29T18:48:38;13.10;78.90
19567;DHT22;9930;49.240;8.548;2022-12-29T18:51:04;13.10;79.00
19567;DHT22;9930;49.240;8.548;2022-12-29T18:53:33;13.00;78.90
19567;DHT22;9930;49.240;8.548;2022-12-29T18:56:02;13.00;79.20